sensor_id;sensor_type;location;lat;lon;timestamp;P1;durP1;ratioP1;P2;durP2;ratioP2
58553;SDS011;48119;53.218;6.576;2023-02-05T00:00:49;5.50;;;4.68;;
58553;SDS011;48119;53.218;6.576;2023-02-05T00:03:15;11.13;;;5.22;;
58553;SDS011;48119;53.218;6.576;2023-02-05T00:05:41;8.73;;;5.50;;
58553;SDS011;48119;53.218;6.576;2023-02-05T00:08:07;9.02;;;4.88;;
58553;SDS011;48119;53.218;6.576;2023-02-05T00:10:33;9.25;;;5.55;;
58553;SDS011;48119;53.218;6.576;2023-02-05T00:12:59;10.40;;;5.32;;
58553;SDS011;48119;53.218;6.576;2023-02-05T00:15:24;8.15;;;4.95;;
58553;SDS011;48119;53.218;6.576;2023-02-05T00:17:50;12.70;;;6.05;;
58553;SDS011;48119;53.218;6.576;2023-02-05T00:20:16;10.65;;;5.20;;
58553;SDS011;48119;53.218;6.576;2023-02-05T00:22:44;9.90;;;5.53;;
58553;SDS011;48119;53.218;6.576;2023-02-05T00:25:10;10.00;;;5.75;;
58553;SDS011;48119;53.218;6.576;2023-02-05T00:27:44;11.55;;;5.43;;
58553;SDS011;48119;53.218;6.576;2023-02-05T00:30:10;13.05;;;7.70;;
58553;SDS011;48119;53.218;6.576;2023-02-05T00:32:41;8.95;;;5.60;;
58553;SDS011;48119;53.218;6.576;2023-02-05T00:35:07;8.60;;;5.65;;
58553;SDS011;48119;53.218;6.576;2023-02-05T00:37:36;12.48;;;6.13;;
58553;SDS011;48119;53.218;6.576;2023-02-05T00:40:02;8.60;;;5.47;;
58553;SDS011;48119;53.218;6.576;2023-02-05T00:42:29;12.85;;;6.00;;
58553;SDS011;48119;53.218;6.576;2023-02-05T00:45:00;11.80;;;5.82;;
58553;SDS011;48119;53.218;6.576;2023-02-05T00:47:31;11.27;;;6.15;;
58553;SDS011;48119;53.218;6.576;2023-02-05T00:50:00;10.77;;;5.60;;
58553;SDS011;48119;53.218;6.576;2023-02-05T00:52:29;13.52;;;6.28;;
58553;SDS011;48119;53.218;6.576;2023-02-05T00:55:00;10.77;;;5.85;;
58553;SDS011;48119;53.218;6.576;2023-02-05T00:57:26;12.43;;;8.93;;
58553;SDS011;48119;53.218;6.576;2023-02-05T00:59:54;9.75;;;5.93;;
58553;SDS011;48119;53.218;6.576;2023-02-05T01:02:22;12.05;;;5.85;;
58553;SDS011;48119;53.218;6.576;2023-02-05T01:04:50;9.90;;;5.85;;
58553;SDS011;48119;53.218;6.576;2023-02-05T01:07:19;10.52;;;5.68;;
58553;SDS011;48119;53.218;6.576;2023-02-05T01:09:54;10.68;;;6.25;;
58553;SDS011;48119;53.218;6.576;2023-02-05T01:12:22;12.70;;;6.65;;
58553;SDS011;48119;53.218;6.576;2023-02-05T01:14:49;11.25;;;6.47;;
58553;SDS011;48119;53.218;6.576;2023-02-05T01:17:15;11.52;;;6.45;;
58553;SDS011;48119;53.218;6.576;2023-02-05T01:19:41;13.13;;;6.13;;
58553;SDS011;48119;53.218;6.576;2023-02-05T01:22:07;15.13;;;7.68;;
58553;SDS011;48119;53.218;6.576;2023-02-05T01:24:37;17.15;;;6.93;;
58553;SDS011;48119;53.218;6.576;2023-02-05T01:27:03;9.93;;;6.68;;
58553;SDS011;48119;53.218;6.576;2023-02-05T01:29:31;16.35;;;7.32;;
58553;SDS011;48119;53.218;6.576;2023-02-05T01:31:57;11.48;;;7.07;;
58553;SDS011;48119;53.218;6.576;2023-02-05T01:34:23;12.23;;;7.18;;
58553;SDS011;48119;53.218;6.576;2023-02-05T01:36:49;16.20;;;6.65;;
58553;SDS011;48119;53.218;6.576;2023-02-05T01:39:15;15.68;;;7.05;;
58553;SDS011;48119;53.218;6.576;2023-02-05T01:41:42;21.50;;;7.32;;
58553;SDS011;48119;53.218;6.576;2023-02-05T01:44:11;19.05;;;7.40;;
58553;SDS011;48119;53.218;6.576;2023-02-05T01:46:44;13.48;;;6.90;;
58553;SDS011;48119;53.218;6.576;2023-02-05T01:49:30;15.05;;;6.85;;
58553;SDS011;48119;53.218;6.576;2023-02-05T01:52:06;16.55;;;7.60;;
58553;SDS011;48119;53.218;6.576;2023-02-05T01:54:37;17.20;;;7.40;;
58553;SDS011;48119;53.218;6.576;2023-02-05T01:57:16;13.10;;;7.15;;
58553;SDS011;48119;53.218;6.576;2023-02-05T01:59:44;12.75;;;7.30;;
58553;SDS011;48119;53.218;6.576;2023-02-05T02:02:12;16.25;;;8.02;;
58553;SDS011;48119;53.218;6.576;2023-02-05T02:04:43;15.77;;;7.93;;
58553;SDS011;48119;53.218;6.576;2023-02-05T02:07:12;14.25;;;6.72;;
58553;SDS011;48119;53.218;6.576;2023-02-05T02:09:41;14.13;;;7.90;;
58553;SDS011;48119;53.218;6.576;2023-02-05T02:12:11;12.52;;;6.57;;
58553;SDS011;48119;53.218;6.576;2023-02-05T02:14:44;17.45;;;7.53;;
58553;SDS011;48119;53.218;6.576;2023-02-05T02:17:13;12.52;;;7.32;;
58553;SDS011;48119;53.218;6.576;2023-02-05T02:22:40;17.15;;;8.20;;
58553;SDS011;48119;53.218;6.576;2023-02-05T02:30:28;16.02;;;8.20;;
58553;SDS011;48119;53.218;6.576;2023-02-05T02:44:08;22.30;;;9.07;;
58553;SDS011;48119;53.218;6.576;2023-02-05T02:46:42;23.35;;;8.60;;
58553;SDS011;48119;53.218;6.576;2023-02-05T02:49:14;14.40;;;7.85;;
58553;SDS011;48119;53.218;6.576;2023-02-05T02:51:45;16.83;;;8.55;;
58553;SDS011;48119;53.218;6.576;2023-02-05T02:54:14;17.88;;;8.07;;
58553;SDS011;48119;53.218;6.576;2023-02-05T02:56:42;17.27;;;8.50;;
58553;SDS011;48119;53.218;6.576;2023-02-05T02:59:13;19.73;;;8.88;;
58553;SDS011;48119;53.218;6.576;2023-02-05T03:01:42;19.10;;;8.55;;
58553;SDS011;48119;53.218;6.576;2023-02-05T03:04:14;19.38;;;8.80;;
58553;SDS011;48119;53.218;6.576;2023-02-05T03:06:46;25.50;;;11.70;;
58553;SDS011;48119;53.218;6.576;2023-02-05T03:09:17;23.05;;;9.57;;
58553;SDS011;48119;53.218;6.576;2023-02-05T03:11:51;18.10;;;8.65;;
58553;SDS011;48119;53.218;6.576;2023-02-05T03:14:17;18.83;;;9.90;;
58553;SDS011;48119;53.218;6.576;2023-02-05T03:16:43;19.42;;;9.88;;
58553;SDS011;48119;53.218;6.576;2023-02-05T03:19:09;21.65;;;11.48;;
58553;SDS011;48119;53.218;6.576;2023-02-05T03:21:39;19.35;;;10.10;;
58553;SDS011;48119;53.218;6.576;2023-02-05T03:24:10;22.45;;;9.95;;
58553;SDS011;48119;53.218;6.576;2023-02-05T03:26:37;21.77;;;9.60;;
58553;SDS011;48119;53.218;6.576;2023-02-05T03:29:04;31.38;;;10.70;;
58553;SDS011;48119;53.218;6.576;2023-02-05T03:55:57;21.25;;;11.05;;
58553;SDS011;48119;53.218;6.576;2023-02-05T03:58:31;32.00;;;10.43;;
58553;SDS011;48119;53.218;6.576;2023-02-05T04:01:09;27.67;;;12.27;;
58553;SDS011;48119;53.218;6.576;2023-02-05T04:03:36;27.63;;;11.48;;
58553;SDS011;48119;53.218;6.576;2023-02-05T04:06:06;28.58;;;11.20;;
58553;SDS011;48119;53.218;6.576;2023-02-05T04:08:32;19.50;;;11.35;;
58553;SDS011;48119;53.218;6.576;2023-02-05T04:10:58;22.75;;;11.82;;
58553;SDS011;48119;53.218;6.576;2023-02-05T04:13:24;26.90;;;12.15;;
58553;SDS011;48119;53.218;6.576;2023-02-05T04:15:50;24.02;;;11.52;;
58553;SDS011;48119;53.218;6.576;2023-02-05T04:18:16;26.98;;;12.57;;
58553;SDS011;48119;53.218;6.576;2023-02-05T04:20:42;33.42;;;13.93;;
58553;SDS011;48119;53.218;6.576;2023-02-05T04:23:09;26.63;;;12.60;;
58553;SDS011;48119;53.218;6.576;2023-02-05T04:25:36;30.73;;;13.15;;
58553;SDS011;48119;53.218;6.576;2023-02-05T04:28:02;26.58;;;12.38;;
58553;SDS011;48119;53.218;6.576;2023-02-05T04:30:30;22.35;;;12.70;;
58553;SDS011;48119;53.218;6.576;2023-02-05T04:32:57;33.53;;;12.55;;
58553;SDS011;48119;53.218;6.576;2023-02-05T04:35:22;33.47;;;16.08;;
58553;SDS011;48119;53.218;6.576;2023-02-05T04:37:53;28.52;;;13.38;;
58553;SDS011;48119;53.218;6.576;2023-02-05T04:40:19;32.90;;;13.75;;
58553;SDS011;48119;53.218;6.576;2023-02-05T04:42:45;26.00;;;13.52;;
58553;SDS011;48119;53.218;6.576;2023-02-05T04:45:12;30.92;;;13.32;;
58553;SDS011;48119;53.218;6.576;2023-02-05T04:47:38;27.88;;;12.55;;
58553;SDS011;48119;53.218;6.576;2023-02-05T04:50:07;26.20;;;13.65;;
58553;SDS011;48119;53.218;6.576;2023-02-05T04:52:36;24.77;;;13.10;;
58553;SDS011;48119;53.218;6.576;2023-02-05T04:55:02;29.88;;;12.20;;
58553;SDS011;48119;53.218;6.576;2023-02-05T04:57:28;24.20;;;12.85;;
58553;SDS011;48119;53.218;6.576;2023-02-05T04:59:55;26.95;;;12.48;;
58553;SDS011;48119;53.218;6.576;2023-02-05T05:02:22;30.55;;;13.88;;
58553;SDS011;48119;53.218;6.576;2023-02-05T05:04:49;27.27;;;14.43;;
58553;SDS011;48119;53.218;6.576;2023-02-05T05:07:14;24.70;;;12.23;;
58553;SDS011;48119;53.218;6.576;2023-02-05T05:09:40;34.22;;;15.23;;
58553;SDS011;48119;53.218;6.576;2023-02-05T05:12:08;27.50;;;14.27;;
58553;SDS011;48119;53.218;6.576;2023-02-05T05:14:34;28.45;;;13.45;;
58553;SDS011;48119;53.218;6.576;2023-02-05T05:17:01;28.02;;;14.73;;
58553;SDS011;48119;53.218;6.576;2023-02-05T05:19:27;28.83;;;12.93;;
58553;SDS011;48119;53.218;6.576;2023-02-05T05:21:53;31.35;;;13.25;;
58553;SDS011;48119;53.218;6.576;2023-02-05T05:24:24;26.73;;;13.43;;
58553;SDS011;48119;53.218;6.576;2023-02-05T05:26:49;19.75;;;10.88;;
58553;SDS011;48119;53.218;6.576;2023-02-05T05:29:16;25.98;;;13.32;;
58553;SDS011;48119;53.218;6.576;2023-02-05T05:31:42;20.85;;;11.52;;
58553;SDS011;48119;53.218;6.576;2023-02-05T05:34:08;12.98;;;6.90;;
58553;SDS011;48119;53.218;6.576;2023-02-05T05:36:37;12.18;;;5.82;;
58553;SDS011;48119;53.218;6.576;2023-02-05T05:39:07;12.85;;;5.22;;
58553;SDS011;48119;53.218;6.576;2023-02-05T05:41:52;11.80;;;4.47;;
58553;SDS011;48119;53.218;6.576;2023-02-05T05:44:36;17.42;;;4.53;;
58553;SDS011;48119;53.218;6.576;2023-02-05T05:47:02;9.27;;;4.05;;
58553;SDS011;48119;53.218;6.576;2023-02-05T05:49:28;9.55;;;2.78;;
58553;SDS011;48119;53.218;6.576;2023-02-05T05:51:54;10.70;;;4.22;;
58553;SDS011;48119;53.218;6.576;2023-02-05T05:54:20;11.10;;;2.25;;
58553;SDS011;48119;53.218;6.576;2023-02-05T05:56:46;11.02;;;2.72;;
58553;SDS011;48119;53.218;6.576;2023-02-05T05:59:15;10.98;;;2.38;;
58553;SDS011;48119;53.218;6.576;2023-02-05T06:01:44;8.70;;;2.30;;
58553;SDS011;48119;53.218;6.576;2023-02-05T06:04:10;16.83;;;3.55;;
58553;SDS011;48119;53.218;6.576;2023-02-05T06:06:36;8.52;;;2.13;;
58553;SDS011;48119;53.218;6.576;2023-02-05T06:09:06;8.00;;;2.30;;
58553;SDS011;48119;53.218;6.576;2023-02-05T06:11:32;9.20;;;2.03;;
58553;SDS011;48119;53.218;6.576;2023-02-05T06:13:58;8.20;;;2.33;;
58553;SDS011;48119;53.218;6.576;2023-02-05T06:16:24;6.95;;;2.25;;
58553;SDS011;48119;53.218;6.576;2023-02-05T06:18:50;13.27;;;3.20;;
58553;SDS011;48119;53.218;6.576;2023-02-05T06:21:21;9.18;;;2.15;;
58553;SDS011;48119;53.218;6.576;2023-02-05T06:23:48;9.60;;;2.20;;
58553;SDS011;48119;53.218;6.576;2023-02-05T06:26:13;11.98;;;2.65;;
58553;SDS011;48119;53.218;6.576;2023-02-05T06:28:39;10.57;;;2.42;;
58553;SDS011;48119;53.218;6.576;2023-02-05T06:31:05;11.73;;;2.40;;
58553;SDS011;48119;53.218;6.576;2023-02-05T06:33:31;16.63;;;2.90;;
58553;SDS011;48119;53.218;6.576;2023-02-05T06:35:57;17.20;;;2.67;;
58553;SDS011;48119;53.218;6.576;2023-02-05T06:38:23;11.95;;;2.33;;
58553;SDS011;48119;53.218;6.576;2023-02-05T06:40:49;10.95;;;2.58;;
58553;SDS011;48119;53.218;6.576;2023-02-05T06:43:15;11.13;;;2.03;;
58553;SDS011;48119;53.218;6.576;2023-02-05T06:45:41;8.68;;;2.20;;
58553;SDS011;48119;53.218;6.576;2023-02-05T06:48:07;11.10;;;2.33;;
58553;SDS011;48119;53.218;6.576;2023-02-05T06:50:33;13.30;;;2.85;;
58553;SDS011;48119;53.218;6.576;2023-02-05T06:52:59;16.92;;;3.85;;
58553;SDS011;48119;53.218;6.576;2023-02-05T06:55:28;11.93;;;2.88;;
58553;SDS011;48119;53.218;6.576;2023-02-05T06:57:54;10.32;;;2.72;;
58553;SDS011;48119;53.218;6.576;2023-02-05T07:00:22;12.95;;;3.17;;
58553;SDS011;48119;53.218;6.576;2023-02-05T07:02:51;13.07;;;2.75;;
58553;SDS011;48119;53.218;6.576;2023-02-05T07:05:17;11.15;;;2.47;;
58553;SDS011;48119;53.218;6.576;2023-02-05T07:07:43;11.32;;;2.95;;
58553;SDS011;48119;53.218;6.576;2023-02-05T07:10:09;12.95;;;2.80;;
58553;SDS011;48119;53.218;6.576;2023-02-05T07:12:35;9.85;;;2.45;;
58553;SDS011;48119;53.218;6.576;2023-02-05T07:15:03;8.98;;;2.92;;
58553;SDS011;48119;53.218;6.576;2023-02-05T07:17:30;12.60;;;4.38;;
58553;SDS011;48119;53.218;6.576;2023-02-05T07:19:55;9.45;;;2.47;;
58553;SDS011;48119;53.218;6.576;2023-02-05T07:22:22;6.75;;;2.15;;
58553;SDS011;48119;53.218;6.576;2023-02-05T07:24:49;9.07;;;2.75;;
58553;SDS011;48119;53.218;6.576;2023-02-05T07:27:16;13.07;;;4.22;;
58553;SDS011;48119;53.218;6.576;2023-02-05T07:29:42;18.20;;;2.88;;
58553;SDS011;48119;53.218;6.576;2023-02-05T07:32:08;14.70;;;3.80;;
58553;SDS011;48119;53.218;6.576;2023-02-05T07:34:36;12.32;;;3.03;;
58553;SDS011;48119;53.218;6.576;2023-02-05T07:37:05;11.88;;;2.60;;
58553;SDS011;48119;53.218;6.576;2023-02-05T07:39:31;9.15;;;2.25;;
58553;SDS011;48119;53.218;6.576;2023-02-05T07:41:58;11.90;;;3.20;;
58553;SDS011;48119;53.218;6.576;2023-02-05T07:44:28;18.50;;;3.75;;
58553;SDS011;48119;53.218;6.576;2023-02-05T07:46:53;13.52;;;2.83;;
58553;SDS011;48119;53.218;6.576;2023-02-05T07:49:19;16.05;;;3.33;;
58553;SDS011;48119;53.218;6.576;2023-02-05T07:51:45;15.68;;;3.83;;
58553;SDS011;48119;53.218;6.576;2023-02-05T07:54:12;15.30;;;3.28;;
58553;SDS011;48119;53.218;6.576;2023-02-05T07:56:40;10.70;;;2.60;;
58553;SDS011;48119;53.218;6.576;2023-02-05T07:59:06;19.38;;;3.70;;
58553;SDS011;48119;53.218;6.576;2023-02-05T08:01:33;8.60;;;3.13;;
58553;SDS011;48119;53.218;6.576;2023-02-05T08:03:59;15.00;;;3.30;;
58553;SDS011;48119;53.218;6.576;2023-02-05T08:06:25;16.52;;;3.97;;
58553;SDS011;48119;53.218;6.576;2023-02-05T08:08:51;11.82;;;3.30;;
58553;SDS011;48119;53.218;6.576;2023-02-05T08:11:17;14.57;;;4.22;;
58553;SDS011;48119;53.218;6.576;2023-02-05T08:13:44;16.30;;;3.65;;
58553;SDS011;48119;53.218;6.576;2023-02-05T08:16:10;20.25;;;4.25;;
58553;SDS011;48119;53.218;6.576;2023-02-05T08:18:37;16.30;;;3.85;;
58553;SDS011;48119;53.218;6.576;2023-02-05T08:21:03;10.93;;;3.83;;
58553;SDS011;48119;53.218;6.576;2023-02-05T08:23:30;12.80;;;2.50;;
58553;SDS011;48119;53.218;6.576;2023-02-05T08:25:56;11.38;;;3.33;;
58553;SDS011;48119;53.218;6.576;2023-02-05T08:28:23;7.13;;;1.40;;
58553;SDS011;48119;53.218;6.576;2023-02-05T08:30:51;7.22;;;1.38;;
58553;SDS011;48119;53.218;6.576;2023-02-05T08:33:20;9.38;;;2.05;;
58553;SDS011;48119;53.218;6.576;2023-02-05T08:35:47;8.43;;;2.80;;
58553;SDS011;48119;53.218;6.576;2023-02-05T08:38:12;6.68;;;2.05;;
58553;SDS011;48119;53.218;6.576;2023-02-05T08:40:38;16.73;;;2.90;;
58553;SDS011;48119;53.218;6.576;2023-02-05T08:43:04;10.50;;;2.15;;
58553;SDS011;48119;53.218;6.576;2023-02-05T08:45:33;11.48;;;3.60;;
58553;SDS011;48119;53.218;6.576;2023-02-05T08:47:59;14.30;;;3.30;;
58553;SDS011;48119;53.218;6.576;2023-02-05T08:50:28;11.20;;;2.83;;
58553;SDS011;48119;53.218;6.576;2023-02-05T08:52:54;8.48;;;2.67;;
58553;SDS011;48119;53.218;6.576;2023-02-05T08:55:20;13.38;;;3.17;;
58553;SDS011;48119;53.218;6.576;2023-02-05T08:57:46;13.00;;;2.95;;
58553;SDS011;48119;53.218;6.576;2023-02-05T09:00:20;12.73;;;3.42;;
58553;SDS011;48119;53.218;6.576;2023-02-05T09:02:46;13.93;;;3.03;;
58553;SDS011;48119;53.218;6.576;2023-02-05T09:05:15;12.40;;;2.97;;
58553;SDS011;48119;53.218;6.576;2023-02-05T09:07:41;17.55;;;4.05;;
58553;SDS011;48119;53.218;6.576;2023-02-05T09:10:10;14.30;;;2.75;;
58553;SDS011;48119;53.218;6.576;2023-02-05T09:12:39;11.40;;;2.70;;
58553;SDS011;48119;53.218;6.576;2023-02-05T09:15:05;9.57;;;2.35;;
58553;SDS011;48119;53.218;6.576;2023-02-05T09:17:37;6.78;;;2.08;;
58553;SDS011;48119;53.218;6.576;2023-02-05T09:20:03;10.43;;;2.67;;
58553;SDS011;48119;53.218;6.576;2023-02-05T09:22:29;9.10;;;2.35;;
58553;SDS011;48119;53.218;6.576;2023-02-05T09:24:55;9.02;;;1.83;;
58553;SDS011;48119;53.218;6.576;2023-02-05T09:27:21;10.45;;;2.33;;
58553;SDS011;48119;53.218;6.576;2023-02-05T09:29:48;8.15;;;2.65;;
58553;SDS011;48119;53.218;6.576;2023-02-05T09:32:19;11.98;;;2.53;;
58553;SDS011;48119;53.218;6.576;2023-02-05T09:34:45;15.20;;;3.13;;
58553;SDS011;48119;53.218;6.576;2023-02-05T09:37:20;10.32;;;2.10;;
58553;SDS011;48119;53.218;6.576;2023-02-05T09:39:48;9.32;;;2.45;;
58553;SDS011;48119;53.218;6.576;2023-02-05T09:45:06;9.15;;;2.92;;
58553;SDS011;48119;53.218;6.576;2023-02-05T09:50:32;15.73;;;2.83;;
58553;SDS011;48119;53.218;6.576;2023-02-05T09:53:22;12.63;;;2.80;;
58553;SDS011;48119;53.218;6.576;2023-02-05T09:55:49;14.10;;;3.00;;
58553;SDS011;48119;53.218;6.576;2023-02-05T09:58:23;11.75;;;3.95;;
58553;SDS011;48119;53.218;6.576;2023-02-05T10:01:06;17.13;;;4.15;;
58553;SDS011;48119;53.218;6.576;2023-02-05T10:03:44;11.40;;;3.10;;
58553;SDS011;48119;53.218;6.576;2023-02-05T10:08:55;20.98;;;4.55;;
58553;SDS011;48119;53.218;6.576;2023-02-05T10:11:33;17.58;;;4.40;;
58553;SDS011;48119;53.218;6.576;2023-02-05T10:19:54;26.85;;;4.82;;
58553;SDS011;48119;53.218;6.576;2023-02-05T10:22:54;14.20;;;4.30;;
58553;SDS011;48119;53.218;6.576;2023-02-05T10:31:58;11.23;;;3.40;;
58553;SDS011;48119;53.218;6.576;2023-02-05T10:37:53;13.38;;;3.85;;
58553;SDS011;48119;53.218;6.576;2023-02-05T10:40:22;13.82;;;3.10;;
58553;SDS011;48119;53.218;6.576;2023-02-05T10:43:21;18.38;;;3.35;;
58553;SDS011;48119;53.218;6.576;2023-02-05T10:45:57;22.77;;;3.90;;
58553;SDS011;48119;53.218;6.576;2023-02-05T10:51:20;25.40;;;4.35;;
58553;SDS011;48119;53.218;6.576;2023-02-05T10:53:55;19.60;;;4.70;;
58553;SDS011;48119;53.218;6.576;2023-02-05T10:56:41;27.58;;;5.53;;
58553;SDS011;48119;53.218;6.576;2023-02-05T10:59:08;21.55;;;4.82;;
58553;SDS011;48119;53.218;6.576;2023-02-05T11:01:48;21.00;;;5.50;;
58553;SDS011;48119;53.218;6.576;2023-02-05T11:04:35;21.60;;;5.50;;
58553;SDS011;48119;53.218;6.576;2023-02-05T11:07:12;23.90;;;5.95;;
58553;SDS011;48119;53.218;6.576;2023-02-05T11:09:50;23.20;;;4.97;;
58553;SDS011;48119;53.218;6.576;2023-02-05T11:12:25;20.92;;;6.07;;
58553;SDS011;48119;53.218;6.576;2023-02-05T11:15:06;23.35;;;6.50;;
58553;SDS011;48119;53.218;6.576;2023-02-05T11:17:42;22.90;;;5.72;;
58553;SDS011;48119;53.218;6.576;2023-02-05T11:22:42;25.80;;;6.38;;
58553;SDS011;48119;53.218;6.576;2023-02-05T11:25:20;19.15;;;5.57;;
58553;SDS011;48119;53.218;6.576;2023-02-05T11:27:52;37.45;;;7.05;;
58553;SDS011;48119;53.218;6.576;2023-02-05T11:33:15;28.98;;;6.40;;
58553;SDS011;48119;53.218;6.576;2023-02-05T11:41:02;24.63;;;5.75;;
58553;SDS011;48119;53.218;6.576;2023-02-05T11:43:34;17.92;;;5.00;;
58553;SDS011;48119;53.218;6.576;2023-02-05T11:46:04;26.27;;;7.43;;
58553;SDS011;48119;53.218;6.576;2023-02-05T11:54:15;27.77;;;6.70;;
58553;SDS011;48119;53.218;6.576;2023-02-05T11:56:58;23.08;;;6.20;;
58553;SDS011;48119;53.218;6.576;2023-02-05T11:59:29;29.17;;;6.07;;
58553;SDS011;48119;53.218;6.576;2023-02-05T12:02:13;20.65;;;5.78;;
58553;SDS011;48119;53.218;6.576;2023-02-05T12:04:56;22.30;;;6.53;;
58553;SDS011;48119;53.218;6.576;2023-02-05T12:07:27;29.75;;;6.43;;
58553;SDS011;48119;53.218;6.576;2023-02-05T12:10:00;32.08;;;7.00;;
58553;SDS011;48119;53.218;6.576;2023-02-05T12:12:32;28.67;;;6.85;;
58553;SDS011;48119;53.218;6.576;2023-02-05T12:15:25;25.58;;;6.38;;
58553;SDS011;48119;53.218;6.576;2023-02-05T12:18:15;24.08;;;5.38;;
58553;SDS011;48119;53.218;6.576;2023-02-05T12:21:06;22.88;;;5.80;;
58553;SDS011;48119;53.218;6.576;2023-02-05T12:26:57;34.60;;;6.85;;
58553;SDS011;48119;53.218;6.576;2023-02-05T12:33:09;22.20;;;5.20;;
58553;SDS011;48119;53.218;6.576;2023-02-05T12:36:15;20.48;;;6.40;;
58553;SDS011;48119;53.218;6.576;2023-02-05T12:41:42;30.77;;;6.05;;
58553;SDS011;48119;53.218;6.576;2023-02-05T12:46:50;28.23;;;5.75;;
58553;SDS011;48119;53.218;6.576;2023-02-05T12:55:01;27.58;;;7.03;;
58553;SDS011;48119;53.218;6.576;2023-02-05T12:57:55;21.45;;;6.28;;
58553;SDS011;48119;53.218;6.576;2023-02-05T13:00:31;22.85;;;5.07;;
58553;SDS011;48119;53.218;6.576;2023-02-05T13:06:07;41.10;;;6.82;;
58553;SDS011;48119;53.218;6.576;2023-02-05T13:08:55;31.90;;;6.82;;
58553;SDS011;48119;53.218;6.576;2023-02-05T13:11:27;20.23;;;5.43;;
58553;SDS011;48119;53.218;6.576;2023-02-05T13:14:16;23.65;;;5.38;;
58553;SDS011;48119;53.218;6.576;2023-02-05T13:16:50;25.15;;;6.65;;
58553;SDS011;48119;53.218;6.576;2023-02-05T13:22:35;25.05;;;5.72;;
58553;SDS011;48119;53.218;6.576;2023-02-05T13:25:38;20.40;;;5.05;;
58553;SDS011;48119;53.218;6.576;2023-02-05T13:31:12;21.85;;;5.22;;
58553;SDS011;48119;53.218;6.576;2023-02-05T13:33:50;19.25;;;4.88;;
58553;SDS011;48119;53.218;6.576;2023-02-05T13:42:01;21.48;;;6.57;;
58553;SDS011;48119;53.218;6.576;2023-02-05T13:59:46;28.20;;;7.18;;
58553;SDS011;48119;53.218;6.576;2023-02-05T14:02:32;27.30;;;7.35;;
58553;SDS011;48119;53.218;6.576;2023-02-05T14:05:06;22.10;;;6.45;;
58553;SDS011;48119;53.218;6.576;2023-02-05T14:07:42;27.85;;;6.97;;
58553;SDS011;48119;53.218;6.576;2023-02-05T14:12:51;32.67;;;7.30;;
58553;SDS011;48119;53.218;6.576;2023-02-05T14:22:58;26.00;;;7.30;;
58553;SDS011;48119;53.218;6.576;2023-02-05T14:30:57;37.42;;;7.40;;
58553;SDS011;48119;53.218;6.576;2023-02-05T14:38:43;33.85;;;7.78;;
58553;SDS011;48119;53.218;6.576;2023-02-05T14:41:53;27.60;;;7.07;;
58553;SDS011;48119;53.218;6.576;2023-02-05T14:44:27;34.22;;;9.45;;
58553;SDS011;48119;53.218;6.576;2023-02-05T14:47:28;26.67;;;6.28;;
58553;SDS011;48119;53.218;6.576;2023-02-05T14:50:00;27.25;;;7.55;;
58553;SDS011;48119;53.218;6.576;2023-02-05T14:52:44;25.15;;;6.35;;
58553;SDS011;48119;53.218;6.576;2023-02-05T14:55:18;31.65;;;6.65;;
58553;SDS011;48119;53.218;6.576;2023-02-05T14:57:59;23.50;;;8.07;;
58553;SDS011;48119;53.218;6.576;2023-02-05T15:00:33;33.28;;;7.53;;
58553;SDS011;48119;53.218;6.576;2023-02-05T15:16:47;31.38;;;6.72;;
58553;SDS011;48119;53.218;6.576;2023-02-05T15:19:48;28.20;;;6.80;;
58553;SDS011;48119;53.218;6.576;2023-02-05T15:24:52;29.27;;;8.52;;
58553;SDS011;48119;53.218;6.576;2023-02-05T15:27:20;39.47;;;7.50;;
58553;SDS011;48119;53.218;6.576;2023-02-05T15:29:53;26.77;;;7.22;;
58553;SDS011;48119;53.218;6.576;2023-02-05T15:35:27;36.30;;;6.47;;
58553;SDS011;48119;53.218;6.576;2023-02-05T15:37:55;32.45;;;7.20;;
58553;SDS011;48119;53.218;6.576;2023-02-05T15:40:39;32.13;;;8.48;;
58553;SDS011;48119;53.218;6.576;2023-02-05T15:43:23;34.97;;;7.80;;
58553;SDS011;48119;53.218;6.576;2023-02-05T15:46:00;26.33;;;7.07;;
58553;SDS011;48119;53.218;6.576;2023-02-05T15:48:32;31.45;;;8.05;;
58553;SDS011;48119;53.218;6.576;2023-02-05T15:51:01;28.05;;;6.80;;
58553;SDS011;48119;53.218;6.576;2023-02-05T15:53:43;30.90;;;8.32;;
58553;SDS011;48119;53.218;6.576;2023-02-05T15:58:46;47.80;;;9.63;;
58553;SDS011;48119;53.218;6.576;2023-02-05T16:01:27;32.33;;;7.32;;
58553;SDS011;48119;53.218;6.576;2023-02-05T16:04:00;30.73;;;6.10;;
58553;SDS011;48119;53.218;6.576;2023-02-05T16:06:40;30.45;;;8.10;;
58553;SDS011;48119;53.218;6.576;2023-02-05T16:09:16;34.70;;;7.57;;
58553;SDS011;48119;53.218;6.576;2023-02-05T16:11:43;28.10;;;6.95;;
58553;SDS011;48119;53.218;6.576;2023-02-05T16:14:14;27.88;;;7.68;;
58553;SDS011;48119;53.218;6.576;2023-02-05T16:22:15;22.35;;;6.40;;
58553;SDS011;48119;53.218;6.576;2023-02-05T16:24:56;28.30;;;6.35;;
58553;SDS011;48119;53.218;6.576;2023-02-05T16:27:33;25.02;;;6.65;;
58553;SDS011;48119;53.218;6.576;2023-02-05T16:30:06;27.60;;;6.75;;
58553;SDS011;48119;53.218;6.576;2023-02-05T16:32:44;31.77;;;6.97;;
58553;SDS011;48119;53.218;6.576;2023-02-05T16:35:35;22.33;;;6.68;;
58553;SDS011;48119;53.218;6.576;2023-02-05T16:38:01;32.90;;;7.47;;
58553;SDS011;48119;53.218;6.576;2023-02-05T16:40:35;30.25;;;6.25;;
58553;SDS011;48119;53.218;6.576;2023-02-05T16:48:31;26.63;;;6.18;;
58553;SDS011;48119;53.218;6.576;2023-02-05T16:50:58;31.45;;;8.15;;
58553;SDS011;48119;53.218;6.576;2023-02-05T16:53:29;27.05;;;6.40;;
58553;SDS011;48119;53.218;6.576;2023-02-05T16:56:10;28.77;;;6.93;;
58553;SDS011;48119;53.218;6.576;2023-02-05T16:58:55;31.88;;;7.68;;
58553;SDS011;48119;53.218;6.576;2023-02-05T17:01:27;28.10;;;6.88;;
58553;SDS011;48119;53.218;6.576;2023-02-05T17:04:04;25.33;;;6.57;;
58553;SDS011;48119;53.218;6.576;2023-02-05T17:06:34;28.40;;;6.80;;
58553;SDS011;48119;53.218;6.576;2023-02-05T17:09:35;29.77;;;7.22;;
58553;SDS011;48119;53.218;6.576;2023-02-05T17:12:23;29.05;;;7.72;;
58553;SDS011;48119;53.218;6.576;2023-02-05T17:14:55;28.23;;;9.02;;
58553;SDS011;48119;53.218;6.576;2023-02-05T17:17:23;42.75;;;9.27;;
58553;SDS011;48119;53.218;6.576;2023-02-05T17:23:05;39.28;;;9.32;;
58553;SDS011;48119;53.218;6.576;2023-02-05T17:25:49;25.27;;;9.48;;
58553;SDS011;48119;53.218;6.576;2023-02-05T17:28:23;29.23;;;10.27;;
58553;SDS011;48119;53.218;6.576;2023-02-05T17:30:54;24.85;;;8.27;;
58553;SDS011;48119;53.218;6.576;2023-02-05T17:33:28;25.52;;;7.20;;
58553;SDS011;48119;53.218;6.576;2023-02-05T17:35:54;30.38;;;8.77;;
58553;SDS011;48119;53.218;6.576;2023-02-05T17:38:23;23.65;;;7.70;;
58553;SDS011;48119;53.218;6.576;2023-02-05T17:41:20;37.67;;;11.65;;
58553;SDS011;48119;53.218;6.576;2023-02-05T17:44:12;33.88;;;10.55;;
58553;SDS011;48119;53.218;6.576;2023-02-05T17:46:40;33.97;;;9.35;;
58553;SDS011;48119;53.218;6.576;2023-02-05T17:49:07;35.35;;;8.80;;
58553;SDS011;48119;53.218;6.576;2023-02-05T17:51:33;22.35;;;6.13;;
58553;SDS011;48119;53.218;6.576;2023-02-05T17:54:00;28.42;;;9.30;;
58553;SDS011;48119;53.218;6.576;2023-02-05T17:56:29;34.08;;;13.35;;
58553;SDS011;48119;53.218;6.576;2023-02-05T17:58:55;35.00;;;11.95;;
58553;SDS011;48119;53.218;6.576;2023-02-05T18:01:23;31.98;;;8.90;;
58553;SDS011;48119;53.218;6.576;2023-02-05T18:03:50;35.55;;;9.93;;
58553;SDS011;48119;53.218;6.576;2023-02-05T18:06:16;33.33;;;7.57;;
58553;SDS011;48119;53.218;6.576;2023-02-05T18:08:43;30.92;;;8.52;;